createdAt,value
2022-08-17T00:01:00.350Z,40.36
2022-08-17T00:02:41.119Z,40.22
2022-08-17T00:04:15.022Z,40.54
2022-08-17T00:05:53.805Z,40.45
2022-08-17T00:07:25.589Z,40.63
2022-08-17T00:09:00.229Z,40.58
2022-08-17T00:10:32.486Z,40.53
2022-08-17T00:12:42.885Z,40.97
2022-08-17T00:14:02.567Z,41.03
2022-08-17T00:15:34.625Z,40.75
2022-08-17T00:17:06.695Z,40.83
2022-08-17T00:19:01.506Z,41.11
2022-08-17T00:20:35.014Z,41.07
2022-08-17T00:22:33.121Z,40.97
2022-08-17T00:23:59.513Z,40.73
2022-08-17T00:25:31.865Z,41.03
2022-08-17T00:27:05.059Z,41.24
2022-08-17T00:28:37.825Z,41.16
2022-08-17T00:30:12.405Z,40.87
2022-08-17T00:31:44.300Z,41.11
2022-08-17T00:33:18.459Z,41.12
2022-08-17T00:34:50.253Z,41.02
2022-08-17T00:36:23.990Z,41.03
2022-08-17T00:37:55.750Z,41.23
2022-08-17T00:39:27.479Z,41.05
2022-08-17T00:41:01.686Z,41.22
2022-08-17T00:42:34.898Z,41.37
2022-08-17T00:44:08.591Z,41.10
2022-08-17T00:45:40.688Z,41.23
2022-08-17T00:47:12.471Z,41.28
2022-08-17T00:48:45.178Z,41.10
2022-08-17T00:50:19.417Z,41.18
2022-08-17T00:51:55.022Z,41.38
2022-08-17T00:53:30.701Z,41.52
2022-08-17T00:55:04.795Z,41.36
2022-08-17T00:56:41.592Z,41.60
2022-08-17T00:58:15.005Z,41.93
2022-08-17T00:59:56.037Z,41.85
2022-08-17T01:01:36.826Z,42.04
2022-08-17T01:03:11.883Z,42.24
2022-08-17T01:04:46.920Z,42.29
2022-08-17T01:06:20.132Z,42.73
2022-08-17T01:07:52.962Z,42.67
2022-08-17T01:09:25.495Z,42.81
2022-08-17T01:11:02.237Z,42.70
2022-08-17T01:12:36.993Z,42.79
2022-08-17T01:14:10.165Z,43.14
2022-08-17T01:15:48.608Z,42.89
2022-08-17T01:17:20.724Z,42.75
2022-08-17T01:18:56.981Z,42.90
2022-08-17T01:20:29.509Z,42.80
2022-08-17T01:22:06.404Z,42.80
2022-08-17T01:23:42.093Z,42.95
2022-08-17T01:25:14.558Z,42.55
2022-08-17T01:26:47.142Z,42.94
2022-08-17T01:28:53.040Z,42.90
2022-08-17T01:30:58.316Z,43.13
2022-08-17T01:32:08.138Z,43.28
2022-08-17T01:33:40.420Z,43.21
2022-08-17T01:35:12.596Z,43.50
2022-08-17T01:36:47.773Z,43.66
2022-08-17T01:38:19.708Z,43.75
2022-08-17T01:40:05.680Z,43.85
2022-08-17T01:41:40.383Z,43.96
2022-08-17T01:43:16.098Z,44.04
2022-08-17T01:44:47.862Z,44.02
2022-08-17T01:46:24.182Z,44.00
2022-08-17T01:47:56.895Z,44.07
2022-08-17T01:49:28.791Z,44.08
2022-08-17T01:51:01.120Z,44.22
2022-08-17T01:52:32.880Z,44.22
2022-08-17T01:54:08.586Z,44.31
2022-08-17T01:55:47.217Z,44.38
2022-08-17T01:57:18.909Z,44.27
2022-08-17T01:58:50.756Z,44.55
2022-08-17T02:00:22.493Z,44.70
2022-08-17T02:01:54.263Z,44.86
2022-08-17T02:03:26.243Z,45.14
2022-08-17T02:04:58.277Z,45.16
2022-08-17T02:06:52.545Z,45.46
2022-08-17T02:08:39.547Z,45.30
2022-08-17T02:10:19.806Z,45.46
2022-08-17T02:11:54.096Z,45.58
2022-08-17T02:13:29.604Z,45.42
2022-08-17T02:15:01.310Z,45.70
2022-08-17T02:16:36.780Z,46.04
2022-08-17T02:18:10.588Z,46.15
2022-08-17T02:19:42.737Z,45.88
2022-08-17T02:21:14.777Z,46.12
2022-08-17T02:22:47.664Z,45.96
2022-08-17T02:24:58.754Z,45.99
2022-08-17T02:26:23.875Z,45.85
2022-08-17T02:27:59.241Z,45.94
2022-08-17T02:29:31.069Z,45.93
2022-08-17T02:31:05.190Z,45.98
2022-08-17T02:32:37.424Z,45.78
2022-08-17T02:34:09.309Z,46.19
2022-08-17T02:35:42.852Z,46.28
2022-08-17T02:37:17.746Z,46.29
2022-08-17T02:38:49.566Z,46.18
2022-08-17T02:40:36.116Z,46.31
2022-08-17T02:42:08.676Z,46.63
2022-08-17T02:43:41.857Z,46.43
2022-08-17T02:45:16.510Z,46.50
2022-08-17T02:46:48.307Z,46.25
2022-08-17T02:48:31.629Z,46.54
2022-08-17T02:50:05.107Z,46.27
2022-08-17T02:51:36.858Z,46.45
2022-08-17T02:53:08.553Z,46.51
2022-08-17T02:54:42.422Z,46.32
2022-08-17T02:56:14.379Z,46.54
2022-08-17T02:57:46.751Z,46.49
2022-08-17T02:59:19.950Z,46.28
2022-08-17T03:00:51.658Z,46.58
2022-08-17T03:02:23.378Z,46.34
2022-08-17T03:03:55.221Z,46.72
2022-08-17T03:05:29.386Z,46.50
2022-08-17T03:07:01.177Z,46.73
2022-08-17T03:08:32.977Z,46.77
2022-08-17T03:10:05.207Z,46.77
2022-08-17T03:11:36.875Z,47.00
2022-08-17T03:13:08.809Z,47.14
2022-08-17T03:14:43.460Z,47.63
2022-08-17T03:16:15.885Z,48.05
2022-08-17T03:17:47.592Z,47.85
2022-08-17T03:19:19.280Z,47.87
2022-08-17T03:20:51.467Z,47.99
2022-08-17T03:22:36.457Z,48.04
2022-08-17T03:24:09.323Z,48.41
2022-08-17T03:25:44.083Z,48.07
2022-08-17T03:27:15.853Z,48.05
2022-08-17T03:28:47.609Z,47.89
2022-08-17T03:30:22.509Z,48.30
2022-08-17T03:31:54.184Z,48.05
2022-08-17T03:33:25.884Z,48.04
2022-08-17T03:34:59.685Z,48.07
2022-08-17T03:36:31.387Z,48.06
2022-08-17T03:38:08.999Z,48.29
2022-08-17T03:39:40.787Z,48.65
2022-08-17T03:41:13.840Z,48.85
2022-08-17T03:42:45.662Z,48.84
2022-08-17T03:44:17.370Z,48.95
2022-08-17T03:46:11.046Z,48.72
2022-08-17T03:48:17.782Z,48.87
2022-08-17T03:50:10.434Z,48.67
2022-08-17T03:52:00.853Z,48.52
2022-08-17T03:53:51.146Z,48.42
2022-08-17T03:55:41.339Z,48.85
2022-08-17T03:57:13.313Z,48.36
2022-08-17T03:58:45.801Z,48.77
2022-08-17T04:00:17.739Z,48.79
2022-08-17T04:01:53.580Z,48.65
2022-08-17T04:03:26.200Z,48.51
2022-08-17T04:04:58.745Z,48.49
2022-08-17T04:06:30.458Z,49.14
2022-08-17T04:08:02.392Z,49.19
2022-08-17T04:09:37.202Z,49.17
2022-08-17T04:11:09.711Z,49.41
2022-08-17T04:12:44.859Z,49.17
2022-08-17T04:14:16.594Z,49.01
2022-08-17T04:15:49.156Z,48.82
2022-08-17T04:17:24.128Z,48.86
2022-08-17T04:18:56.026Z,48.80
2022-08-17T04:20:28.526Z,48.58
2022-08-17T04:22:00.376Z,48.53
2022-08-17T04:23:34.932Z,48.93
2022-08-17T04:25:13.599Z,48.78
2022-08-17T04:26:53.903Z,49.26
2022-08-17T04:28:26.232Z,49.23
2022-08-17T04:29:58.584Z,48.96
2022-08-17T04:31:30.510Z,49.44
2022-08-17T04:33:07.453Z,49.20
2022-08-17T04:34:39.629Z,48.76
2022-08-17T04:36:12.964Z,49.02
2022-08-17T04:37:45.287Z,48.55
2022-08-17T04:39:17.041Z,49.06
2022-08-17T04:41:07.411Z,48.75
2022-08-17T04:42:39.143Z,48.53
2022-08-17T04:44:11.534Z,48.75
2022-08-17T04:45:55.662Z,48.46
2022-08-17T04:47:28.201Z,48.38
2022-08-17T04:49:04.048Z,47.89
2022-08-17T04:50:37.399Z,47.33
2022-08-17T04:52:29.755Z,47.52
2022-08-17T04:54:06.287Z,47.22
2022-08-17T04:55:38.074Z,47.22
2022-08-17T04:57:09.848Z,47.12
2022-08-17T04:58:41.630Z,46.90
2022-08-17T05:00:14.058Z,46.74
2022-08-17T05:01:47.641Z,46.50
2022-08-17T05:03:19.440Z,46.31
2022-08-17T05:04:52.544Z,46.06
2022-08-17T05:06:28.103Z,46.28
2022-08-17T05:08:02.395Z,46.07
2022-08-17T05:09:34.077Z,45.92
2022-08-17T05:11:06.340Z,46.17
2022-08-17T05:12:38.176Z,46.06
2022-08-17T05:14:10.081Z,46.28
2022-08-17T05:15:44.878Z,46.24
2022-08-17T05:17:16.968Z,46.04
2022-08-17T05:18:49.569Z,46.21
2022-08-17T05:20:23.781Z,46.49
2022-08-17T05:21:55.463Z,46.12
2022-08-17T05:23:32.723Z,46.44
2022-08-17T05:25:14.915Z,46.42
2022-08-17T05:26:46.818Z,46.08
2022-08-17T05:28:26.576Z,45.85
2022-08-17T05:29:59.712Z,46.09
2022-08-17T05:31:31.432Z,45.90
2022-08-17T05:33:05.623Z,45.95
2022-08-17T05:34:37.454Z,45.61
2022-08-17T05:36:41.684Z,45.01
2022-08-17T05:38:04.895Z,45.23
2022-08-17T05:39:36.705Z,45.01
2022-08-17T05:41:09.124Z,45.23
2022-08-17T05:42:40.928Z,45.65
2022-08-17T05:44:12.706Z,45.67
2022-08-17T05:45:55.828Z,44.90
2022-08-17T05:47:30.306Z,45.07
2022-08-17T05:49:05.581Z,44.94
2022-08-17T05:50:48.055Z,44.88
2022-08-17T05:52:30.706Z,44.48
2022-08-17T05:54:15.995Z,44.42
2022-08-17T05:55:54.435Z,44.14
2022-08-17T05:57:53.053Z,44.50
2022-08-17T05:59:37.476Z,44.10
2022-08-17T06:01:19.615Z,44.28
2022-08-17T06:03:00.670Z,44.15
2022-08-17T06:04:47.524Z,43.88
2022-08-17T06:06:31.713Z,43.76
2022-08-17T06:08:17.491Z,43.80
2022-08-17T06:10:01.235Z,43.72
2022-08-17T06:11:38.886Z,43.81
2022-08-17T06:13:31.607Z,43.80
2022-08-17T06:15:26.211Z,43.14
2022-08-17T06:17:02.284Z,43.43
2022-08-17T06:18:41.631Z,43.48
2022-08-17T06:20:15.639Z,43.46
2022-08-17T06:21:50.959Z,43.27
2022-08-17T06:23:29.373Z,43.30
2022-08-17T06:25:10.180Z,43.50
2022-08-17T06:26:45.409Z,43.38
2022-08-17T06:28:27.426Z,43.59
2022-08-17T06:30:08.122Z,43.48
2022-08-17T06:31:40.757Z,43.49
2022-08-17T06:33:20.948Z,43.22
2022-08-17T06:34:53.548Z,43.49
2022-08-17T06:36:40.462Z,43.17
2022-08-17T06:38:21.837Z,43.08
2022-08-17T06:40:28.568Z,43.25
2022-08-17T06:42:10.150Z,43.54
2022-08-17T06:44:12.641Z,43.31
2022-08-17T06:46:11.355Z,43.28
2022-08-17T06:47:49.317Z,43.19
2022-08-17T06:49:26.113Z,43.45
2022-08-17T06:51:02.381Z,43.20
2022-08-17T06:52:46.723Z,43.50
2022-08-17T06:54:36.409Z,43.51
2022-08-17T06:56:12.824Z,43.72
2022-08-17T06:57:49.307Z,43.50
2022-08-17T06:59:26.200Z,43.75
2022-08-17T07:01:08.242Z,43.91
2022-08-17T07:03:02.465Z,43.73
2022-08-17T07:04:35.871Z,44.28
2022-08-17T07:06:12.720Z,44.15
2022-08-17T07:08:04.338Z,44.13
2022-08-17T07:09:37.386Z,44.12
2022-08-17T07:11:14.355Z,43.92
2022-08-17T07:12:48.283Z,44.37
2022-08-17T07:14:30.821Z,44.40
2022-08-17T07:16:13.103Z,44.61
2022-08-17T07:17:48.378Z,44.39
2022-08-17T07:19:26.618Z,44.71
2022-08-17T07:21:04.930Z,44.58
2022-08-17T07:22:57.630Z,44.74
2022-08-17T07:24:43.287Z,44.54
2022-08-17T07:26:16.346Z,44.73
2022-08-17T07:27:52.809Z,44.86
2022-08-17T07:29:24.775Z,44.98
2022-08-17T07:30:56.601Z,44.95
2022-08-17T07:32:34.164Z,45.37
2022-08-17T07:34:14.475Z,45.65
2022-08-17T07:35:48.338Z,45.14
2022-08-17T07:37:20.427Z,45.70
2022-08-17T07:38:56.615Z,45.86
2022-08-17T07:40:31.944Z,45.63
2022-08-17T07:42:05.534Z,46.01
2022-08-17T07:43:45.556Z,46.59
2022-08-17T07:45:36.429Z,46.74
2022-08-17T07:47:35.423Z,47.08
2022-08-17T07:49:21.533Z,46.58
2022-08-17T07:50:53.494Z,46.48
2022-08-17T07:52:50.895Z,45.87
2022-08-17T07:54:30.197Z,45.86
2022-08-17T07:56:01.937Z,45.70
2022-08-17T07:57:36.126Z,45.68
2022-08-17T07:59:14.548Z,45.65
2022-08-17T08:00:46.637Z,45.70
2022-08-17T08:02:31.916Z,45.84
2022-08-17T08:04:59.074Z,45.17
2022-08-17T08:06:23.592Z,45.48
2022-08-17T08:07:57.724Z,45.34
2022-08-17T08:09:42.614Z,44.85
2022-08-17T08:11:28.194Z,45.12
2022-08-17T08:13:09.007Z,44.68
2022-08-17T08:14:56.114Z,44.50
2022-08-17T08:16:31.534Z,43.83
2022-08-17T08:18:18.666Z,43.74
2022-08-17T08:20:42.496Z,43.79
2022-08-17T08:22:10.261Z,43.45
2022-08-17T08:23:49.906Z,43.72
2022-08-17T08:25:27.093Z,43.42
2022-08-17T08:27:12.612Z,43.84
2022-08-17T08:28:54.746Z,43.93
2022-08-17T08:30:28.165Z,43.58
2022-08-17T08:32:16.314Z,43.88
2022-08-17T08:33:57.275Z,43.40
2022-08-17T08:35:33.698Z,43.47
2022-08-17T08:37:18.006Z,43.84
2022-08-17T08:38:58.583Z,44.03
2022-08-17T08:40:43.427Z,44.19
2022-08-17T08:42:24.608Z,43.78
2022-08-17T08:44:08.216Z,44.29
2022-08-17T08:45:50.336Z,44.03
2022-08-17T08:47:35.258Z,43.96
2022-08-17T08:50:01.980Z,43.93
2022-08-17T08:51:40.630Z,44.63
2022-08-17T08:53:25.341Z,44.16
2022-08-17T08:55:05.420Z,44.61
2022-08-17T08:56:58.952Z,44.85
2022-08-17T08:58:50.475Z,44.32
2022-08-17T09:00:25.670Z,44.90
2022-08-17T09:02:07.143Z,44.68
2022-08-17T09:03:53.969Z,44.20
2022-08-17T09:05:39.193Z,44.85
2022-08-17T09:07:22.384Z,44.55
2022-08-17T09:09:07.331Z,44.64
2022-08-17T09:10:52.298Z,44.73
2022-08-17T09:12:33.558Z,45.08
2022-08-17T09:14:21.692Z,44.66
2022-08-17T09:15:59.033Z,45.31
2022-08-17T09:17:38.899Z,45.32
2022-08-17T09:19:17.190Z,45.15
2022-08-17T09:20:55.488Z,45.64
2022-08-17T09:22:33.849Z,45.47
2022-08-17T09:24:12.862Z,45.64
2022-08-17T09:25:50.785Z,45.34
2022-08-17T09:27:30.527Z,45.24
2022-08-17T09:29:08.644Z,45.22
2022-08-17T09:30:44.041Z,45.08
2022-08-17T09:32:20.449Z,45.34
2022-08-17T09:33:55.408Z,45.42
2022-08-17T09:35:36.683Z,45.03
2022-08-17T09:37:19.214Z,45.54
2022-08-17T09:39:00.278Z,45.08
2022-08-17T09:40:38.365Z,45.47
2022-08-17T09:42:19.823Z,45.52
2022-08-17T09:43:58.617Z,45.01
2022-08-17T09:45:34.173Z,45.49
2022-08-17T09:47:11.716Z,45.37
2022-08-17T09:48:50.322Z,45.56
2022-08-17T09:51:03.335Z,45.39
2022-08-17T09:52:21.821Z,46.09
2022-08-17T09:53:54.205Z,46.08
2022-08-17T09:55:43.414Z,46.05
2022-08-17T09:57:32.035Z,45.90
2022-08-17T09:59:27.447Z,45.57
2022-08-17T10:01:17.862Z,45.67
2022-08-17T10:03:18.733Z,45.71
2022-08-17T10:04:58.584Z,45.81
2022-08-17T10:06:35.467Z,45.67
2022-08-17T10:08:15.067Z,46.29
2022-08-17T10:09:55.739Z,46.15
2022-08-17T10:11:52.269Z,46.38
2022-08-17T10:13:34.347Z,46.09
2022-08-17T10:15:22.499Z,46.19
2022-08-17T10:17:01.998Z,46.51
2022-08-17T10:18:49.532Z,46.11
2022-08-17T10:20:27.586Z,46.26
2022-08-17T10:22:34.985Z,46.29
2022-08-17T10:24:31.642Z,46.69
2022-08-17T10:26:15.974Z,46.68
2022-08-17T10:27:52.479Z,46.92
2022-08-17T10:29:46.229Z,46.51
2022-08-17T10:31:34.862Z,46.49
2022-08-17T10:33:15.545Z,46.72
2022-08-17T10:35:02.709Z,46.63
2022-08-17T10:36:48.000Z,46.69
2022-08-17T10:38:37.036Z,46.98
2022-08-17T10:40:24.581Z,46.96
2022-08-17T10:42:02.601Z,47.63
2022-08-17T10:43:55.749Z,47.52
2022-08-17T10:46:27.783Z,48.02
2022-08-17T10:48:04.718Z,48.04
2022-08-17T10:49:38.390Z,47.83
2022-08-17T10:51:12.470Z,48.86
2022-08-17T10:52:49.283Z,48.74
2022-08-17T10:54:40.437Z,50.46
2022-08-17T10:56:21.715Z,52.11
2022-08-17T10:58:20.869Z,53.58
2022-08-17T10:59:54.306Z,55.44
2022-08-17T11:02:04.145Z,56.81
2022-08-17T11:03:35.998Z,57.04
2022-08-17T11:05:18.294Z,57.26
2022-08-17T11:07:02.222Z,57.26
2022-08-17T11:09:10.634Z,56.68
2022-08-17T11:11:20.864Z,56.41
2022-08-17T11:13:01.814Z,55.84
2022-08-17T11:14:47.227Z,56.03
2022-08-17T11:16:47.941Z,55.61
2022-08-17T11:19:10.063Z,55.40
2022-08-17T11:21:20.710Z,55.27
2022-08-17T11:23:43.028Z,55.05
2022-08-17T11:25:19.218Z,55.14
2022-08-17T11:27:04.948Z,54.52
2022-08-17T11:28:48.711Z,54.09
2022-08-17T11:30:44.497Z,53.47
2022-08-17T11:32:32.089Z,53.32
2022-08-17T11:34:06.237Z,52.94
2022-08-17T11:35:47.125Z,52.35
2022-08-17T11:37:41.686Z,51.44
2022-08-17T11:39:35.410Z,50.18
2022-08-17T11:41:20.033Z,49.71
2022-08-17T11:43:10.649Z,49.42
2022-08-17T11:44:51.167Z,48.91
2022-08-17T11:46:52.676Z,48.62
2022-08-17T11:48:54.021Z,48.33
2022-08-17T11:50:54.995Z,47.79
2022-08-17T11:52:39.067Z,47.81
2022-08-17T11:54:34.097Z,48.19
2022-08-17T11:56:09.463Z,48.18
2022-08-17T11:58:00.152Z,47.18
2022-08-17T11:59:58.662Z,47.55
2022-08-17T12:01:55.650Z,48.37
2022-08-17T12:03:55.203Z,47.91
2022-08-17T12:05:32.868Z,48.54
2022-08-17T12:07:09.064Z,48.39
2022-08-17T12:08:43.603Z,48.44
2022-08-17T12:10:21.440Z,48.40
2022-08-17T12:12:11.944Z,49.77
2022-08-17T12:13:51.927Z,49.57
2022-08-17T12:15:28.999Z,49.53
2022-08-17T12:17:03.943Z,50.33
2022-08-17T12:18:39.415Z,50.05
2022-08-17T12:20:18.528Z,49.53
2022-08-17T12:22:00.716Z,49.80
2022-08-17T12:23:40.852Z,49.47
2022-08-17T12:25:22.313Z,49.59
2022-08-17T12:26:58.748Z,50.10
2022-08-17T12:28:33.404Z,50.09
2022-08-17T12:30:12.032Z,49.60
2022-08-17T12:31:47.134Z,49.52
2022-08-17T12:33:25.790Z,49.22
2022-08-17T12:35:00.743Z,48.41
2022-08-17T12:36:33.786Z,48.10
2022-08-17T12:38:26.637Z,48.72
2022-08-17T12:40:03.595Z,48.95
2022-08-17T12:41:38.898Z,48.31
2022-08-17T12:43:21.279Z,47.88
2022-08-17T12:44:53.040Z,49.45
2022-08-17T12:46:26.155Z,50.46
2022-08-17T12:48:04.116Z,51.05
2022-08-17T12:49:37.589Z,51.49
2022-08-17T12:51:12.635Z,50.87
2022-08-17T12:52:44.534Z,50.81
2022-08-17T12:54:26.878Z,50.44
2022-08-17T12:56:00.278Z,51.01
2022-08-17T12:57:41.089Z,51.77
2022-08-17T12:59:12.793Z,51.97
2022-08-17T13:00:50.542Z,51.53
2022-08-17T13:02:30.164Z,51.40
2022-08-17T13:04:02.003Z,51.10
2022-08-17T13:05:35.975Z,50.51
2022-08-17T13:07:07.724Z,49.97
2022-08-17T13:08:43.085Z,50.26
2022-08-17T13:10:23.248Z,50.88
2022-08-17T13:11:59.406Z,50.99
2022-08-17T13:13:35.927Z,50.67
2022-08-17T13:15:16.952Z,50.30
2022-08-17T13:16:53.645Z,49.42
2022-08-17T13:18:39.796Z,49.75
2022-08-17T13:20:15.044Z,49.49
2022-08-17T13:21:49.229Z,49.38
2022-08-17T13:23:21.116Z,48.97
2022-08-17T13:24:55.019Z,48.50
2022-08-17T13:26:32.463Z,48.86
2022-08-17T13:28:04.349Z,49.12
2022-08-17T13:29:39.434Z,49.53
2022-08-17T13:31:21.554Z,49.73
2022-08-17T13:32:54.148Z,49.71
2022-08-17T13:34:36.943Z,50.57
2022-08-17T13:36:30.136Z,50.76
2022-08-17T13:38:06.442Z,51.36
2022-08-17T13:39:41.697Z,51.27
2022-08-17T13:41:33.555Z,51.00
2022-08-17T13:43:05.450Z,49.95
2022-08-17T13:44:39.601Z,49.59
2022-08-17T13:46:17.616Z,49.00
2022-08-17T13:47:49.541Z,48.58
2022-08-17T13:49:21.711Z,47.73
2022-08-17T13:51:39.361Z,47.42
2022-08-17T13:53:19.954Z,47.40
2022-08-17T13:54:52.063Z,47.98
2022-08-17T13:56:39.392Z,48.21
2022-08-17T13:58:11.715Z,49.43
2022-08-17T13:59:54.749Z,49.19
2022-08-17T14:01:33.353Z,48.86
2022-08-17T14:03:05.739Z,50.47
2022-08-17T14:04:41.248Z,50.24
2022-08-17T14:06:23.711Z,50.39
2022-08-17T14:08:07.580Z,50.02
2022-08-17T14:09:47.800Z,51.00
2022-08-17T14:11:21.354Z,51.05
2022-08-17T14:12:53.319Z,50.68
2022-08-17T14:14:25.925Z,49.68
2022-08-17T14:15:57.596Z,49.06
2022-08-17T14:17:35.036Z,48.32
2022-08-17T14:19:11.471Z,48.18
2022-08-17T14:20:44.161Z,48.54
2022-08-17T14:22:23.581Z,47.45
2022-08-17T14:23:55.316Z,48.25
2022-08-17T14:25:29.351Z,48.73
2022-08-17T14:27:04.009Z,49.90
2022-08-17T14:28:36.476Z,49.91
2022-08-17T14:30:09.930Z,49.34
2022-08-17T14:31:41.603Z,49.29
2022-08-17T14:33:14.518Z,49.31
2022-08-17T14:34:47.284Z,48.93
2022-08-17T14:36:19.061Z,49.54
2022-08-17T14:37:53.124Z,49.70
2022-08-17T14:39:25.293Z,49.30
2022-08-17T14:40:57.313Z,48.92
2022-08-17T14:42:33.108Z,48.66
2022-08-17T14:44:05.732Z,49.05
2022-08-17T14:45:37.527Z,47.93
2022-08-17T14:47:14.942Z,48.69
2022-08-17T14:48:47.143Z,48.61
2022-08-17T14:50:21.027Z,48.72
2022-08-17T14:51:54.113Z,48.27
2022-08-17T14:53:27.209Z,48.61
2022-08-17T14:54:58.994Z,47.94
2022-08-17T14:56:35.354Z,47.17
2022-08-17T14:58:09.927Z,47.38
2022-08-17T14:59:41.639Z,46.89
2022-08-17T15:01:14.027Z,46.89
2022-08-17T15:02:48.761Z,46.46
2022-08-17T15:04:20.417Z,46.11
2022-08-17T15:05:52.233Z,45.67
2022-08-17T15:07:26.132Z,45.98
2022-08-17T15:09:04.181Z,45.83
2022-08-17T15:10:36.736Z,45.39
2022-08-17T15:12:08.801Z,45.42
2022-08-17T15:13:52.500Z,44.61
2022-08-17T15:15:25.422Z,44.72
2022-08-17T15:16:57.161Z,45.51
2022-08-17T15:18:29.588Z,45.74
2022-08-17T15:20:01.356Z,45.76
2022-08-17T15:21:33.700Z,45.67
2022-08-17T15:23:06.940Z,45.66
2022-08-17T15:24:39.984Z,45.16
2022-08-17T15:26:11.705Z,45.31
2022-08-17T15:27:44.029Z,45.13
2022-08-17T15:29:15.836Z,44.66
2022-08-17T15:30:47.567Z,44.32
2022-08-17T15:32:27.253Z,43.44
2022-08-17T15:33:59.365Z,43.44
2022-08-17T15:35:32.972Z,43.52
2022-08-17T15:37:04.867Z,43.14
2022-08-17T15:38:39.253Z,43.19
2022-08-17T15:40:13.315Z,43.54
2022-08-17T15:41:45.086Z,43.61
2022-08-17T15:43:23.301Z,43.41
2022-08-17T15:44:59.983Z,43.44
2022-08-17T15:46:31.783Z,43.26
2022-08-17T15:48:08.879Z,43.35
2022-08-17T15:49:41.619Z,43.66
2022-08-17T15:51:15.533Z,44.16
2022-08-17T15:52:47.550Z,44.32
2022-08-17T15:54:22.828Z,44.88
2022-08-17T15:55:57.092Z,45.68
2022-08-17T15:57:28.807Z,46.62
2022-08-17T15:59:01.102Z,46.75
2022-08-17T16:00:43.511Z,46.39
2022-08-17T16:03:13.615Z,47.03
2022-08-17T16:04:30.401Z,47.52
2022-08-17T16:06:03.433Z,47.80
2022-08-17T16:07:35.431Z,47.78
2022-08-17T16:09:07.161Z,47.68
2022-08-17T16:10:39.398Z,47.49
2022-08-17T16:12:14.805Z,47.25
2022-08-17T16:13:54.473Z,47.95
2022-08-17T16:15:26.833Z,48.05
2022-08-17T16:16:59.081Z,47.67
2022-08-17T16:18:31.611Z,47.43
2022-08-17T16:20:04.753Z,47.13
2022-08-17T16:21:42.647Z,47.13
2022-08-17T16:23:20.116Z,46.38
2022-08-17T16:24:57.361Z,46.25
2022-08-17T16:26:30.797Z,45.86
2022-08-17T16:28:04.365Z,45.36
2022-08-17T16:29:38.545Z,45.28
2022-08-17T16:31:10.318Z,45.20
2022-08-17T16:32:42.480Z,45.45
2022-08-17T16:34:17.549Z,45.92
2022-08-17T16:35:50.296Z,46.42
2022-08-17T16:37:22.129Z,46.22
2022-08-17T16:38:53.844Z,46.68
2022-08-17T16:40:29.287Z,47.19
2022-08-17T16:42:04.874Z,46.82
2022-08-17T16:43:37.964Z,46.39
2022-08-17T16:45:13.686Z,46.20
2022-08-17T16:46:47.232Z,45.38
2022-08-17T16:48:19.712Z,45.67
2022-08-17T16:49:51.412Z,45.49
2022-08-17T16:51:23.155Z,45.23
2022-08-17T16:53:03.022Z,45.64
2022-08-17T16:54:37.590Z,45.59
2022-08-17T16:56:09.301Z,45.43
2022-08-17T16:57:47.514Z,45.43
2022-08-17T16:59:30.875Z,45.29
2022-08-17T17:01:03.695Z,44.75
2022-08-17T17:02:37.865Z,44.02
2022-08-17T17:04:14.722Z,44.48
2022-08-17T17:06:03.678Z,44.16
2022-08-17T17:07:49.890Z,44.56
2022-08-17T17:09:27.845Z,45.24
2022-08-17T17:11:13.868Z,45.27
2022-08-17T17:13:01.629Z,45.24
2022-08-17T17:14:42.059Z,45.26
2022-08-17T17:16:21.539Z,45.37
2022-08-17T17:17:55.577Z,45.63
2022-08-17T17:19:37.245Z,46.57
2022-08-17T17:21:14.086Z,47.45
2022-08-17T17:22:49.056Z,47.28
2022-08-17T17:24:28.860Z,47.88
2022-08-17T17:26:11.536Z,48.37
2022-08-17T17:27:54.657Z,48.70
2022-08-17T17:29:47.378Z,48.32
2022-08-17T17:31:25.323Z,48.29
2022-08-17T17:33:03.517Z,48.23
2022-08-17T17:34:38.002Z,47.86
2022-08-17T17:36:24.140Z,47.89
2022-08-17T17:37:57.347Z,47.71
2022-08-17T17:39:44.158Z,47.13
2022-08-17T17:41:25.445Z,47.18
2022-08-17T17:43:14.184Z,47.27
2022-08-17T17:45:08.324Z,47.04
2022-08-17T17:46:49.552Z,47.01
2022-08-17T17:48:21.410Z,47.29
2022-08-17T17:49:53.153Z,47.05
2022-08-17T17:52:09.177Z,46.74
2022-08-17T17:53:43.055Z,46.83
2022-08-17T17:55:35.354Z,47.16
2022-08-17T17:57:21.417Z,47.34
2022-08-17T17:58:59.960Z,47.12
2022-08-17T18:00:38.565Z,46.71
2022-08-17T18:02:44.276Z,47.32
2022-08-17T18:04:32.596Z,47.57
2022-08-17T18:06:15.087Z,47.96
2022-08-17T18:07:54.283Z,48.07
2022-08-17T18:09:40.018Z,47.77
2022-08-17T18:11:24.544Z,47.52
2022-08-17T18:13:07.954Z,47.60
2022-08-17T18:15:00.986Z,47.02
2022-08-17T18:16:32.969Z,47.48
2022-08-17T18:18:39.886Z,47.08
2022-08-17T18:20:11.765Z,47.60
2022-08-17T18:21:48.903Z,47.85
2022-08-17T18:23:27.075Z,48.19
2022-08-17T18:25:00.165Z,48.71
2022-08-17T18:26:49.989Z,48.75
2022-08-17T18:28:30.397Z,48.85
2022-08-17T18:30:32.507Z,49.23
2022-08-17T18:32:32.075Z,49.41
2022-08-17T18:34:45.812Z,49.66
2022-08-17T18:36:28.039Z,49.60
2022-08-17T18:38:20.657Z,49.76
2022-08-17T18:39:55.902Z,49.79
2022-08-17T18:41:30.366Z,49.65
2022-08-17T18:43:14.895Z,49.73
2022-08-17T18:44:48.768Z,49.91
2022-08-17T18:46:29.745Z,49.88
2022-08-17T18:48:02.266Z,49.86
2022-08-17T18:49:36.195Z,49.87
2022-08-17T18:51:39.911Z,49.98
2022-08-17T18:53:34.192Z,50.01
2022-08-17T18:55:09.128Z,50.17
2022-08-17T18:56:49.261Z,50.22
2022-08-17T18:58:25.236Z,50.29
2022-08-17T18:59:58.471Z,50.23
2022-08-17T19:01:46.962Z,50.42
2022-08-17T19:03:26.535Z,50.38
2022-08-17T19:05:07.976Z,50.80
2022-08-17T19:06:39.780Z,51.57
2022-08-17T19:08:19.032Z,52.10
2022-08-17T19:09:55.902Z,52.55
2022-08-17T19:11:32.696Z,53.43
2022-08-17T19:13:12.660Z,53.60
2022-08-17T19:14:45.844Z,54.19
2022-08-17T19:16:23.841Z,54.24
2022-08-17T19:18:03.211Z,54.39
2022-08-17T19:19:52.521Z,55.02
2022-08-17T19:21:30.642Z,54.57
2022-08-17T19:23:10.515Z,55.17
2022-08-17T19:24:47.837Z,55.83
2022-08-17T19:26:55.457Z,55.86
2022-08-17T19:28:29.741Z,56.31
2022-08-17T19:30:12.743Z,56.02
2022-08-17T19:31:55.074Z,56.64
2022-08-17T19:33:27.262Z,56.88
2022-08-17T19:35:00.990Z,56.96
2022-08-17T19:36:42.970Z,57.25
2022-08-17T19:38:26.572Z,57.61
2022-08-17T19:40:08.677Z,57.99
2022-08-17T19:41:46.608Z,57.80
2022-08-17T19:43:28.661Z,57.99
2022-08-17T19:45:08.641Z,57.53
2022-08-17T19:46:49.855Z,58.50
2022-08-17T19:48:35.605Z,58.71
2022-08-17T19:50:16.215Z,58.33
2022-08-17T19:51:54.500Z,57.85
2022-08-17T19:54:01.663Z,58.20
2022-08-17T19:55:36.202Z,57.96
2022-08-17T19:57:15.982Z,57.98
2022-08-17T19:59:01.038Z,58.32
2022-08-17T20:00:42.503Z,58.64
2022-08-17T20:02:25.189Z,59.07
2022-08-17T20:04:03.383Z,59.25
2022-08-17T20:06:08.647Z,59.09
2022-08-17T20:07:42.166Z,59.14
2022-08-17T20:09:21.145Z,58.92
2022-08-17T20:10:58.307Z,58.80
2022-08-17T20:12:33.469Z,58.58
2022-08-17T20:14:12.298Z,58.66
2022-08-17T20:15:46.330Z,58.21
2022-08-17T20:17:20.440Z,58.38
2022-08-17T20:19:00.174Z,58.97
2022-08-17T20:20:38.759Z,58.90
2022-08-17T20:22:21.265Z,59.68
2022-08-17T20:24:02.121Z,59.91
2022-08-17T20:25:43.914Z,59.99
2022-08-17T20:27:31.355Z,59.99
2022-08-17T20:29:36.847Z,59.79
2022-08-17T20:31:41.358Z,59.45
2022-08-17T20:33:24.693Z,59.23
2022-08-17T20:35:21.382Z,59.46
2022-08-17T20:37:01.930Z,59.71
2022-08-17T20:38:41.900Z,59.79
2022-08-17T20:40:22.246Z,59.79
2022-08-17T20:42:06.057Z,60.15
2022-08-17T20:44:06.674Z,60.67
2022-08-17T20:46:08.082Z,61.05
2022-08-17T20:48:15.260Z,61.18
2022-08-17T20:49:59.742Z,61.91
2022-08-17T20:52:00.455Z,61.45
2022-08-17T20:54:07.745Z,62.17
2022-08-17T20:55:55.883Z,61.95
2022-08-17T20:57:48.437Z,62.18
2022-08-17T20:59:55.098Z,62.55
2022-08-17T21:01:39.670Z,62.81
2022-08-17T21:03:51.768Z,62.62
2022-08-17T21:05:37.162Z,62.93
2022-08-17T21:07:42.566Z,63.03
2022-08-17T21:09:32.993Z,62.80
2022-08-17T21:11:56.808Z,63.16
2022-08-17T21:14:00.438Z,63.56
2022-08-17T21:15:42.419Z,63.47
2022-08-17T21:17:56.314Z,64.73
2022-08-17T21:20:08.038Z,65.31
2022-08-17T21:21:51.263Z,65.51
2022-08-17T21:23:46.754Z,65.58
2022-08-17T21:25:48.858Z,65.28
2022-08-17T21:27:37.319Z,65.10